Mariposa, California
Current Conditions -  °F | °C
As of 12:53 PM on Thursday 23 Oct 2014 (Local Time) from KMCE Reporting Station
Clear Clear  
Wind Chill: 75°   Ceiling: Unl
Heat Index: 75°   Visibility: 10mi
Dew Point: 49°   Wind: 5mph
Humidity: 40%   Direction: NA
Pressure: 30.03"   Gusts: NA
Location:  37.49°N, 119.97°W
Report Text: KMCE 231953Z AUTO VRB04KT 10SM CLR 24/09 A3003 RMK AO2 SLP168 T02390094
Loading
Personal Weather Stations






























Interactive Weather Map
Tropical Storm Tracking
New forecast layout! Learn more

10-Day Weather Forecast

Advertisements
Track Severe Weather on mobile